createdAt,value
2019-02-18T00:00:49.589Z,26.73
2019-02-18T00:01:29.425Z,25.27
2019-02-18T00:02:07.336Z,26.33
2019-02-18T00:02:45.326Z,26.10
2019-02-18T00:03:23.437Z,27.48
2019-02-18T00:04:00.815Z,25.50
2019-02-18T00:04:38.204Z,24.80
2019-02-18T00:05:16.252Z,28.47
2019-02-18T00:05:53.735Z,27.60
2019-02-18T00:06:32.166Z,27.30
2019-02-18T00:07:14.475Z,27.32
2019-02-18T00:07:48.528Z,26.93
2019-02-18T00:08:26.428Z,27.70
2019-02-18T00:09:05.307Z,24.72
2019-02-18T00:09:42.737Z,25.90
2019-02-18T00:10:20.347Z,25.52
2019-02-18T00:10:58.169Z,25.70
2019-02-18T00:11:35.947Z,25.52
2019-02-18T00:12:13.723Z,26.75
2019-02-18T00:12:51.215Z,26.68
2019-02-18T00:13:28.894Z,26.82
2019-02-18T00:14:06.375Z,25.15
2019-02-18T00:14:44.164Z,27.00
2019-02-18T00:15:21.554Z,26.87
2019-02-18T00:15:59.154Z,27.58
2019-02-18T00:16:36.288Z,26.97
2019-02-18T00:17:13.727Z,26.25
2019-02-18T00:17:51.362Z,26.35
2019-02-18T00:18:29.067Z,26.85
2019-02-18T00:19:07.057Z,25.75
2019-02-18T00:19:44.097Z,25.72
2019-02-18T00:20:21.567Z,26.62
2019-02-18T00:20:58.874Z,26.73
2019-02-18T00:21:36.777Z,27.30
2019-02-18T00:22:14.452Z,26.87
2019-02-18T00:22:52.210Z,26.20
2019-02-18T00:23:30.040Z,27.98
2019-02-18T00:24:07.777Z,26.93
2019-02-18T00:24:47.617Z,26.45
2019-02-18T00:25:25.605Z,26.73
2019-02-18T00:26:03.151Z,28.75
2019-02-18T00:26:40.879Z,27.95
2019-02-18T00:27:18.645Z,27.17
2019-02-18T00:27:56.258Z,27.70
2019-02-18T00:28:36.815Z,28.57
2019-02-18T00:29:13.625Z,26.73
2019-02-18T00:29:51.529Z,27.50
2019-02-18T00:30:29.131Z,27.98
2019-02-18T00:31:06.835Z,30.02
2019-02-18T00:31:44.190Z,29.85
2019-02-18T00:32:21.456Z,29.02
2019-02-18T00:32:58.533Z,28.80
2019-02-18T00:33:35.991Z,27.67
2019-02-18T00:34:13.571Z,29.57
2019-02-18T00:34:50.991Z,30.55
2019-02-18T00:35:27.671Z,29.77
2019-02-18T00:36:05.354Z,27.10
2019-02-18T00:36:42.790Z,27.45
2019-02-18T00:37:24.509Z,29.23
2019-02-18T00:37:59.711Z,28.73
2019-02-18T00:38:37.342Z,29.05
2019-02-18T00:39:14.751Z,31.35
2019-02-18T00:39:52.871Z,28.57
2019-02-18T00:40:30.489Z,29.40
2019-02-18T00:41:07.937Z,27.77
2019-02-18T00:41:45.347Z,29.20
2019-02-18T00:42:23.613Z,28.57
2019-02-18T00:43:01.041Z,27.60
2019-02-18T00:43:39.101Z,27.80
2019-02-18T00:44:16.756Z,28.70
2019-02-18T00:44:54.740Z,29.15
2019-02-18T00:45:33.251Z,30.27
2019-02-18T00:46:11.336Z,29.50
2019-02-18T00:46:48.931Z,29.90
2019-02-18T00:47:26.581Z,28.77
2019-02-18T00:48:04.468Z,29.67
2019-02-18T00:48:42.139Z,28.57
2019-02-18T00:49:19.894Z,31.23
2019-02-18T00:49:57.112Z,29.05
2019-02-18T00:50:34.885Z,28.50
2019-02-18T00:51:12.503Z,28.85
2019-02-18T00:51:49.847Z,30.45
2019-02-18T00:52:28.251Z,29.52
2019-02-18T00:53:05.743Z,29.00
2019-02-18T00:53:43.748Z,29.75
2019-02-18T00:54:21.500Z,29.25
2019-02-18T00:54:59.501Z,30.55
2019-02-18T00:55:37.414Z,31.02
2019-02-18T00:56:15.380Z,30.12
2019-02-18T00:56:53.260Z,30.02
2019-02-18T00:57:30.691Z,29.27
2019-02-18T00:58:08.039Z,28.62
2019-02-18T00:58:45.805Z,29.20
2019-02-18T00:59:23.763Z,29.40
2019-02-18T01:00:01.361Z,30.72
2019-02-18T01:00:39.337Z,29.92
2019-02-18T01:01:16.969Z,28.85
2019-02-18T01:01:54.732Z,30.05
2019-02-18T01:02:32.969Z,29.23
2019-02-18T01:03:11.043Z,30.88
2019-02-18T01:03:48.636Z,30.27
2019-02-18T01:04:26.443Z,30.02
2019-02-18T01:05:04.349Z,29.77
2019-02-18T01:05:41.889Z,30.12
2019-02-18T01:06:19.834Z,30.88
2019-02-18T01:06:57.243Z,29.55
2019-02-18T01:07:35.347Z,29.80
2019-02-18T01:08:13.219Z,31.60
2019-02-18T01:08:50.703Z,32.45
2019-02-18T01:09:28.295Z,32.33
2019-02-18T01:10:06.973Z,30.72
2019-02-18T01:10:44.965Z,31.87
2019-02-18T01:11:23.089Z,31.90
2019-02-18T01:12:00.867Z,32.55
2019-02-18T01:12:38.429Z,33.18
2019-02-18T01:13:16.135Z,33.10
2019-02-18T01:13:53.896Z,33.15
2019-02-18T01:14:31.625Z,32.78
2019-02-18T01:15:10.541Z,31.02
2019-02-18T01:15:48.388Z,32.50
2019-02-18T01:16:25.773Z,31.80
2019-02-18T01:17:03.509Z,32.38
2019-02-18T01:17:41.647Z,32.17
2019-02-18T01:18:18.472Z,32.78
2019-02-18T01:18:56.360Z,30.85
2019-02-18T01:19:34.110Z,32.30
2019-02-18T01:20:12.067Z,32.80
2019-02-18T01:20:50.103Z,31.25
2019-02-18T01:21:27.774Z,30.97
2019-02-18T01:22:05.681Z,32.53
2019-02-18T01:22:43.825Z,31.57
2019-02-18T01:23:21.303Z,32.73
2019-02-18T01:23:58.990Z,33.78
2019-02-18T01:24:36.999Z,32.95
2019-02-18T01:25:14.729Z,31.23
2019-02-18T01:25:52.564Z,32.03
2019-02-18T01:26:30.123Z,33.13
2019-02-18T01:27:07.485Z,30.72
2019-02-18T01:27:45.189Z,31.87
2019-02-18T01:28:22.760Z,33.83
2019-02-18T01:29:01.832Z,31.97
2019-02-18T01:29:39.203Z,31.87
2019-02-18T01:30:17.287Z,30.25
2019-02-18T01:30:55.361Z,30.80
2019-02-18T01:31:33.541Z,33.80
2019-02-18T01:32:11.219Z,32.65
2019-02-18T01:32:48.697Z,31.73
2019-02-18T01:33:25.877Z,31.57
2019-02-18T01:34:03.167Z,34.55
2019-02-18T01:34:41.141Z,33.85
2019-02-18T01:35:18.575Z,33.92
2019-02-18T01:35:56.831Z,32.78
2019-02-18T01:36:34.899Z,33.10
2019-02-18T01:37:12.861Z,34.20
2019-02-18T01:37:50.677Z,33.08
2019-02-18T01:38:31.535Z,33.20
2019-02-18T01:39:09.202Z,33.80
2019-02-18T01:39:47.006Z,34.25
2019-02-18T01:40:24.731Z,32.73
2019-02-18T01:41:02.928Z,34.10
2019-02-18T01:41:40.672Z,34.90
2019-02-18T01:42:18.149Z,33.50
2019-02-18T01:42:55.843Z,34.40
2019-02-18T01:43:33.407Z,33.42
2019-02-18T01:44:11.427Z,34.95
2019-02-18T01:44:49.611Z,34.85
2019-02-18T01:45:27.123Z,33.10
2019-02-18T01:46:05.104Z,34.55
2019-02-18T01:46:42.483Z,34.10
2019-02-18T01:47:20.447Z,33.48
2019-02-18T01:47:57.751Z,33.58
2019-02-18T01:48:35.515Z,31.15
2019-02-18T01:49:13.089Z,32.35
2019-02-18T01:49:50.445Z,34.48
2019-02-18T01:50:28.463Z,36.30
2019-02-18T01:51:05.525Z,33.33
2019-02-18T01:51:43.207Z,34.88
2019-02-18T01:52:21.285Z,34.50
2019-02-18T01:52:58.993Z,33.25
2019-02-18T01:53:36.761Z,32.35
2019-02-18T01:54:14.479Z,34.13
2019-02-18T01:54:51.937Z,34.50
2019-02-18T01:55:29.962Z,34.38
2019-02-18T01:56:07.311Z,33.60
2019-02-18T01:56:44.971Z,34.05
2019-02-18T01:57:22.719Z,33.92
2019-02-18T01:58:00.659Z,35.83
2019-02-18T01:58:38.643Z,34.73
2019-02-18T01:59:16.114Z,33.60
2019-02-18T01:59:53.886Z,33.55
2019-02-18T02:00:31.389Z,34.30
2019-02-18T02:01:09.494Z,33.92
2019-02-18T02:01:46.859Z,35.63
2019-02-18T02:02:25.109Z,34.30
2019-02-18T02:03:05.489Z,36.25
2019-02-18T02:03:43.497Z,35.03
2019-02-18T02:04:20.957Z,34.58
2019-02-18T02:04:59.072Z,35.10
2019-02-18T02:05:37.139Z,33.42
2019-02-18T02:06:14.933Z,36.35
2019-02-18T02:06:52.851Z,35.83
2019-02-18T02:07:30.905Z,34.03
2019-02-18T02:08:08.600Z,34.38
2019-02-18T02:08:45.993Z,33.85
2019-02-18T02:09:23.087Z,34.38
2019-02-18T02:10:00.767Z,34.30
2019-02-18T02:10:38.129Z,34.70
2019-02-18T02:11:16.037Z,35.48
2019-02-18T02:11:53.496Z,34.43
2019-02-18T02:12:31.195Z,35.60
2019-02-18T02:13:35.867Z,34.75
2019-02-18T02:14:13.567Z,31.37
2019-02-18T02:14:50.925Z,34.70
2019-02-18T02:15:28.035Z,32.63
2019-02-18T02:16:10.814Z,32.25
2019-02-18T02:16:48.280Z,34.75
2019-02-18T02:17:26.305Z,33.35
2019-02-18T02:18:03.752Z,34.00
2019-02-18T02:18:41.225Z,35.08
2019-02-18T02:19:18.343Z,35.08
2019-02-18T02:19:56.315Z,35.08
2019-02-18T02:20:35.345Z,36.17
2019-02-18T02:21:13.235Z,33.73
2019-02-18T02:21:50.868Z,34.60
2019-02-18T02:22:28.703Z,35.10
2019-02-18T02:23:06.474Z,34.25
2019-02-18T02:23:44.025Z,35.85
2019-02-18T02:24:21.809Z,35.23
2019-02-18T02:24:58.866Z,34.08
2019-02-18T02:25:36.913Z,36.63
2019-02-18T02:26:14.055Z,35.20
2019-02-18T02:26:51.415Z,34.55
2019-02-18T02:27:29.429Z,34.88
2019-02-18T02:28:07.343Z,34.10
2019-02-18T02:28:44.991Z,34.70
2019-02-18T02:29:22.896Z,34.78
2019-02-18T02:30:00.652Z,34.40
2019-02-18T02:30:38.693Z,33.60
2019-02-18T02:31:16.333Z,34.25
2019-02-18T02:31:53.802Z,36.10
2019-02-18T02:32:31.523Z,34.92
2019-02-18T02:33:08.766Z,34.53
2019-02-18T02:33:46.771Z,34.75
2019-02-18T02:34:24.457Z,32.90
2019-02-18T02:35:02.361Z,34.65
2019-02-18T02:35:40.112Z,36.23
2019-02-18T02:36:18.135Z,35.88
2019-02-18T02:36:56.115Z,35.35
2019-02-18T02:37:34.132Z,34.90
2019-02-18T02:38:14.143Z,34.83
2019-02-18T02:38:52.017Z,34.60
2019-02-18T02:39:29.959Z,36.50
2019-02-18T02:40:08.950Z,34.95
2019-02-18T02:40:46.906Z,34.78
2019-02-18T02:41:24.570Z,35.15
2019-02-18T02:42:01.656Z,34.58
2019-02-18T02:42:39.697Z,37.10
2019-02-18T02:43:17.689Z,34.58
2019-02-18T02:43:55.376Z,35.90
2019-02-18T02:44:51.639Z,35.55
2019-02-18T02:45:29.329Z,35.38
2019-02-18T02:46:07.345Z,35.90
2019-02-18T02:46:45.223Z,35.17
2019-02-18T02:47:22.531Z,35.20
2019-02-18T02:48:00.300Z,34.60
2019-02-18T02:48:38.051Z,36.35
2019-02-18T02:49:15.737Z,34.03
2019-02-18T02:49:53.465Z,34.25
2019-02-18T02:50:31.253Z,35.85
2019-02-18T02:51:08.692Z,35.50
2019-02-18T02:51:46.291Z,36.28
2019-02-18T02:52:24.232Z,35.23
2019-02-18T02:53:01.965Z,35.78
2019-02-18T02:53:39.462Z,36.40
2019-02-18T02:54:17.490Z,34.85
2019-02-18T02:54:55.197Z,35.83
2019-02-18T02:55:32.935Z,35.90
2019-02-18T02:56:10.567Z,33.90
2019-02-18T02:56:48.283Z,34.15
2019-02-18T02:57:26.248Z,36.38
2019-02-18T02:58:04.463Z,35.40
2019-02-18T02:58:42.441Z,34.70
2019-02-18T02:59:20.015Z,35.52
2019-02-18T02:59:57.714Z,35.30
2019-02-18T03:00:35.444Z,34.98
2019-02-18T03:01:13.082Z,35.98
2019-02-18T03:01:50.757Z,37.78
2019-02-18T03:02:28.523Z,35.15
2019-02-18T03:03:06.335Z,35.55
2019-02-18T03:03:44.027Z,35.85
2019-02-18T03:04:21.413Z,35.68
2019-02-18T03:04:59.369Z,36.77
2019-02-18T03:05:36.973Z,36.48
2019-02-18T03:06:14.434Z,34.23
2019-02-18T03:06:52.195Z,37.03
2019-02-18T03:07:30.273Z,35.50
2019-02-18T03:08:19.489Z,35.13
2019-02-18T03:08:47.405Z,36.35
2019-02-18T03:09:25.542Z,36.95
2019-02-18T03:10:02.980Z,36.05
2019-02-18T03:10:40.990Z,34.70
2019-02-18T03:11:18.549Z,33.65
2019-02-18T03:11:55.612Z,35.65
2019-02-18T03:12:33.756Z,38.63
2019-02-18T03:13:11.201Z,36.10
2019-02-18T03:13:50.385Z,35.95
2019-02-18T03:14:27.796Z,35.08
2019-02-18T03:15:06.375Z,36.25
2019-02-18T03:15:44.120Z,35.00
2019-02-18T03:16:21.471Z,36.35
2019-02-18T03:16:58.836Z,38.23
2019-02-18T03:17:35.829Z,38.02
2019-02-18T03:18:13.495Z,36.23
2019-02-18T03:18:50.451Z,38.05
2019-02-18T03:19:27.815Z,35.75
2019-02-18T03:20:05.342Z,36.17
2019-02-18T03:20:43.301Z,37.60
2019-02-18T03:21:20.675Z,35.52
2019-02-18T03:21:58.048Z,38.50
2019-02-18T03:22:35.390Z,36.70
2019-02-18T03:23:12.975Z,36.10
2019-02-18T03:23:49.979Z,35.92
2019-02-18T03:24:27.975Z,35.50
2019-02-18T03:25:18.879Z,37.17
2019-02-18T03:25:56.222Z,36.08
2019-02-18T03:26:34.117Z,37.05
2019-02-18T03:27:12.073Z,35.60
2019-02-18T03:27:50.480Z,37.10
2019-02-18T03:28:46.452Z,38.58
2019-02-18T03:30:16.228Z,35.25
2019-02-18T03:31:06.403Z,33.40
2019-02-18T03:31:43.784Z,36.08
2019-02-18T03:32:21.727Z,35.75
2019-02-18T03:32:59.585Z,37.03
2019-02-18T03:33:45.298Z,39.50
2019-02-18T03:34:33.460Z,38.63
2019-02-18T03:35:11.151Z,36.65
2019-02-18T03:35:49.340Z,37.03
2019-02-18T03:36:26.307Z,35.48
2019-02-18T03:37:04.309Z,37.33
2019-02-18T03:37:42.236Z,37.98
2019-02-18T03:38:30.842Z,38.15
2019-02-18T03:38:59.516Z,39.27
2019-02-18T03:39:37.493Z,38.48
2019-02-18T03:40:15.479Z,37.93
2019-02-18T03:41:02.778Z,36.93
2019-02-18T03:41:32.558Z,37.93
2019-02-18T03:42:09.878Z,38.17
2019-02-18T03:42:47.136Z,36.75
2019-02-18T03:43:25.216Z,37.55
2019-02-18T03:44:03.010Z,38.28
2019-02-18T03:44:40.695Z,38.38
2019-02-18T03:45:17.952Z,37.08
2019-02-18T03:45:55.240Z,39.05
2019-02-18T03:46:33.147Z,38.30
2019-02-18T03:47:10.910Z,38.20
2019-02-18T03:47:48.384Z,37.13
2019-02-18T03:48:26.340Z,38.30
2019-02-18T03:49:04.501Z,39.00
2019-02-18T03:49:42.560Z,38.48
2019-02-18T03:50:20.674Z,39.33
2019-02-18T03:50:58.341Z,38.83
2019-02-18T03:51:38.083Z,36.95
2019-02-18T03:52:15.559Z,37.13
2019-02-18T03:52:53.560Z,38.60
2019-02-18T03:53:30.677Z,37.50
2019-02-18T03:54:09.144Z,39.75
2019-02-18T03:54:46.211Z,39.38
2019-02-18T03:55:24.202Z,39.10
2019-02-18T03:56:01.966Z,37.85
2019-02-18T03:56:40.080Z,38.38
2019-02-18T03:57:17.844Z,38.88
2019-02-18T03:57:55.660Z,38.98
2019-02-18T03:58:33.469Z,37.78
2019-02-18T03:59:10.899Z,38.05
2019-02-18T03:59:48.974Z,39.40
2019-02-18T04:00:26.706Z,38.67
2019-02-18T04:01:03.510Z,39.42
2019-02-18T04:01:41.040Z,40.17
2019-02-18T04:02:19.031Z,37.15
2019-02-18T04:02:56.100Z,39.18
2019-02-18T04:03:33.957Z,37.50
2019-02-18T04:04:11.640Z,39.13
2019-02-18T04:04:49.643Z,38.55
2019-02-18T04:05:27.321Z,37.83
2019-02-18T04:06:05.231Z,38.08
2019-02-18T04:06:43.072Z,40.33
2019-02-18T04:07:21.100Z,38.38
2019-02-18T04:07:58.922Z,40.35
2019-02-18T04:08:43.095Z,40.40
2019-02-18T04:09:15.415Z,39.55
2019-02-18T04:09:52.234Z,36.80
2019-02-18T04:10:29.961Z,39.00
2019-02-18T04:11:07.609Z,40.38
2019-02-18T04:11:45.028Z,39.27
2019-02-18T04:12:23.073Z,39.53
2019-02-18T04:13:00.784Z,38.15
2019-02-18T04:13:38.869Z,37.40
2019-02-18T04:14:16.463Z,39.75
2019-02-18T04:14:53.906Z,40.20
2019-02-18T04:15:31.657Z,41.00
2019-02-18T04:16:09.160Z,38.63
2019-02-18T04:16:46.471Z,38.13
2019-02-18T04:17:24.848Z,40.58
2019-02-18T04:18:02.735Z,39.83
2019-02-18T04:18:39.960Z,41.88
2019-02-18T04:19:20.908Z,39.50
2019-02-18T04:19:58.842Z,39.00
2019-02-18T04:20:36.531Z,38.33
2019-02-18T04:21:13.534Z,37.33
2019-02-18T04:21:51.192Z,40.25
2019-02-18T04:22:28.669Z,40.23
2019-02-18T04:23:06.752Z,39.42
2019-02-18T04:23:44.490Z,39.73
2019-02-18T04:24:21.912Z,40.28
2019-02-18T04:24:59.577Z,39.67
2019-02-18T04:25:37.391Z,40.60
2019-02-18T04:26:14.859Z,39.45
2019-02-18T04:26:53.220Z,38.58
2019-02-18T04:27:31.019Z,40.00
2019-02-18T04:28:08.172Z,39.50
2019-02-18T04:28:45.904Z,40.73
2019-02-18T04:29:23.230Z,39.98
2019-02-18T04:30:00.657Z,40.10
2019-02-18T04:30:38.444Z,39.10
2019-02-18T04:31:15.954Z,37.67
2019-02-18T04:31:53.500Z,37.60
2019-02-18T04:32:30.778Z,40.60
2019-02-18T04:33:08.772Z,41.68
2019-02-18T04:33:45.730Z,36.68
2019-02-18T04:34:23.474Z,38.83
2019-02-18T04:35:00.898Z,40.05
2019-02-18T04:35:37.978Z,39.20
2019-02-18T04:36:15.676Z,38.33
2019-02-18T04:36:53.585Z,38.35
2019-02-18T04:37:31.590Z,35.73
2019-02-18T04:38:09.416Z,39.55
2019-02-18T04:38:54.197Z,37.55
2019-02-18T04:39:26.776Z,36.98
2019-02-18T04:40:04.510Z,37.67
2019-02-18T04:40:43.652Z,37.48
2019-02-18T04:41:21.343Z,38.95
2019-02-18T04:41:59.136Z,39.80
2019-02-18T04:42:37.520Z,38.40
2019-02-18T04:43:15.477Z,38.60
2019-02-18T04:43:52.864Z,38.53
2019-02-18T04:44:33.244Z,40.80
2019-02-18T04:45:10.756Z,39.33
2019-02-18T04:45:48.397Z,38.45
2019-02-18T04:46:25.881Z,38.73
2019-02-18T04:47:03.329Z,38.33
2019-02-18T04:47:41.012Z,39.92
2019-02-18T04:48:18.584Z,39.75
2019-02-18T04:48:55.970Z,37.42
2019-02-18T04:49:33.660Z,36.77
2019-02-18T04:50:12.013Z,38.80
2019-02-18T04:50:49.996Z,38.75
2019-02-18T04:51:27.873Z,36.88
2019-02-18T04:52:07.382Z,38.92
2019-02-18T04:52:45.149Z,37.42
2019-02-18T04:53:22.650Z,38.40
2019-02-18T04:54:00.720Z,41.18
2019-02-18T04:54:38.522Z,39.23
2019-02-18T04:55:16.543Z,37.98
2019-02-18T04:55:54.206Z,40.35
2019-02-18T04:56:32.188Z,37.88
2019-02-18T04:57:09.742Z,39.67
2019-02-18T04:57:47.578Z,39.25
2019-02-18T04:58:25.206Z,39.88
2019-02-18T04:59:02.615Z,39.10
2019-02-18T04:59:40.617Z,38.10
2019-02-18T05:00:18.420Z,39.95
2019-02-18T05:00:57.700Z,37.63
2019-02-18T05:01:35.004Z,37.60
2019-02-18T05:02:12.568Z,39.27
2019-02-18T05:02:50.516Z,38.10
2019-02-18T05:03:28.220Z,40.67
2019-02-18T05:04:05.272Z,39.92
2019-02-18T05:04:43.081Z,38.53
2019-02-18T05:05:20.515Z,38.40
2019-02-18T05:05:58.158Z,38.65
2019-02-18T05:06:36.131Z,37.28
2019-02-18T05:07:13.548Z,39.67
2019-02-18T05:07:51.990Z,39.33
2019-02-18T05:08:29.792Z,37.67
2019-02-18T05:09:08.225Z,39.75
2019-02-18T05:09:46.216Z,39.60
2019-02-18T05:10:23.968Z,40.60
2019-02-18T05:11:01.890Z,40.08
2019-02-18T05:11:41.872Z,41.30
2019-02-18T05:12:19.231Z,40.03
2019-02-18T05:12:56.928Z,39.70
2019-02-18T05:13:34.870Z,38.70
2019-02-18T05:14:12.950Z,39.53
2019-02-18T05:14:50.416Z,41.50
2019-02-18T05:15:28.356Z,39.67
2019-02-18T05:16:06.318Z,39.30
2019-02-18T05:16:44.284Z,39.40
2019-02-18T05:17:22.337Z,40.40
2019-02-18T05:17:59.856Z,38.50
2019-02-18T05:18:36.855Z,40.20
2019-02-18T05:19:13.974Z,39.30
2019-02-18T05:19:57.824Z,40.03
2019-02-18T05:20:35.201Z,38.63
2019-02-18T05:21:13.042Z,40.20
2019-02-18T05:21:51.176Z,39.38
2019-02-18T05:22:48.122Z,40.48
2019-02-18T05:23:25.590Z,37.05
2019-02-18T05:24:03.222Z,37.30
2019-02-18T05:24:40.756Z,38.13
2019-02-18T05:25:18.236Z,41.10
2019-02-18T05:25:56.319Z,40.85
2019-02-18T05:26:33.922Z,40.28
2019-02-18T05:27:11.860Z,40.03
2019-02-18T05:27:49.600Z,40.15
2019-02-18T05:28:27.464Z,40.52
2019-02-18T05:29:05.080Z,39.15
2019-02-18T05:29:42.627Z,39.73
2019-02-18T05:30:20.664Z,39.80
2019-02-18T05:30:58.099Z,40.03
2019-02-18T05:31:36.233Z,40.65
2019-02-18T05:32:14.296Z,41.25
2019-02-18T05:32:51.773Z,37.83
2019-02-18T05:33:29.900Z,40.30
2019-02-18T05:34:07.280Z,38.55
2019-02-18T05:34:44.917Z,38.08
2019-02-18T05:35:22.739Z,39.83
2019-02-18T05:36:00.687Z,38.63
2019-02-18T05:36:38.117Z,40.33
2019-02-18T05:37:15.244Z,38.13
2019-02-18T05:37:53.024Z,38.87
2019-02-18T05:38:31.050Z,40.52
2019-02-18T05:39:17.917Z,38.80
2019-02-18T05:39:49.544Z,37.60
2019-02-18T05:40:27.169Z,37.25
2019-02-18T05:41:05.289Z,38.75
2019-02-18T05:41:43.341Z,40.48
2019-02-18T05:42:20.950Z,40.43
2019-02-18T05:42:58.622Z,40.23
2019-02-18T05:43:36.385Z,40.98
2019-02-18T05:44:14.164Z,38.85
2019-02-18T05:44:51.554Z,40.52
2019-02-18T05:45:29.772Z,39.75
2019-02-18T05:46:08.688Z,39.67
2019-02-18T05:46:46.846Z,39.13
2019-02-18T05:47:24.644Z,37.48
2019-02-18T05:48:02.577Z,37.78
2019-02-18T05:48:40.238Z,38.95
2019-02-18T05:49:17.675Z,36.88
2019-02-18T05:49:55.848Z,36.88
2019-02-18T05:50:33.970Z,38.90
2019-02-18T05:51:11.310Z,38.33
2019-02-18T05:51:49.233Z,37.33
2019-02-18T05:52:27.528Z,38.02
2019-02-18T05:53:05.325Z,37.00
2019-02-18T05:53:43.137Z,38.35
2019-02-18T05:54:21.142Z,37.80
2019-02-18T05:54:58.532Z,39.58
2019-02-18T05:55:36.133Z,41.00
2019-02-18T05:56:13.257Z,38.28
2019-02-18T05:56:51.107Z,38.38
2019-02-18T05:57:28.744Z,39.50
2019-02-18T05:58:06.765Z,37.48
2019-02-18T05:58:46.882Z,38.53
2019-02-18T05:59:24.636Z,37.55
2019-02-18T06:00:02.118Z,37.20
2019-02-18T06:00:41.843Z,37.90
2019-02-18T06:01:20.327Z,37.85
2019-02-18T06:01:57.759Z,38.67
2019-02-18T06:02:35.792Z,38.38
2019-02-18T06:03:13.553Z,37.50
2019-02-18T06:03:51.677Z,36.88
2019-02-18T06:04:29.740Z,38.42
2019-02-18T06:05:08.007Z,37.98
2019-02-18T06:05:45.364Z,37.08
2019-02-18T06:06:23.520Z,37.90
2019-02-18T06:07:01.321Z,38.42
2019-02-18T06:07:39.303Z,36.53
2019-02-18T06:08:17.101Z,38.13
2019-02-18T06:08:54.566Z,37.63
2019-02-18T06:09:32.265Z,38.20
2019-02-18T06:10:10.033Z,36.42
2019-02-18T06:10:48.067Z,37.78
2019-02-18T06:11:25.516Z,36.73
2019-02-18T06:12:03.576Z,39.08
2019-02-18T06:12:41.720Z,38.13
2019-02-18T06:13:19.816Z,40.60
2019-02-18T06:13:57.741Z,37.10
2019-02-18T06:14:35.485Z,38.02
2019-02-18T06:15:13.309Z,39.40
2019-02-18T06:15:51.317Z,39.05
2019-02-18T06:16:28.654Z,48.10
2019-02-18T06:17:07.544Z,42.25
2019-02-18T06:17:45.229Z,40.48
2019-02-18T06:18:22.945Z,38.00
2019-02-18T06:19:00.586Z,36.85
2019-02-18T06:19:38.485Z,39.05
2019-02-18T06:20:18.559Z,39.63
2019-02-18T06:20:57.334Z,40.23
2019-02-18T06:21:37.052Z,38.88
2019-02-18T06:22:14.690Z,37.23
2019-02-18T06:22:52.136Z,39.35
2019-02-18T06:23:29.834Z,38.30
2019-02-18T06:24:07.495Z,36.70
2019-02-18T06:24:44.975Z,39.75
2019-02-18T06:25:23.044Z,40.50
2019-02-18T06:26:00.654Z,39.88
2019-02-18T06:26:38.428Z,36.68
2019-02-18T06:27:17.857Z,39.18
2019-02-18T06:27:55.345Z,39.15
2019-02-18T06:28:33.118Z,38.60
2019-02-18T06:29:10.837Z,37.05
2019-02-18T06:29:48.591Z,39.15
2019-02-18T06:30:26.303Z,36.80
2019-02-18T06:31:04.059Z,37.25
2019-02-18T06:31:41.844Z,40.08
2019-02-18T06:32:19.805Z,38.55
2019-02-18T06:32:57.527Z,39.27
2019-02-18T06:33:35.233Z,38.40
2019-02-18T06:34:12.804Z,38.80
2019-02-18T06:34:52.527Z,37.28
2019-02-18T06:35:30.207Z,37.85
2019-02-18T06:36:07.690Z,39.60
2019-02-18T06:36:45.057Z,39.00
2019-02-18T06:37:22.632Z,38.78
2019-02-18T06:38:00.111Z,41.50
2019-02-18T06:38:37.831Z,41.70
2019-02-18T06:39:15.826Z,40.58
2019-02-18T06:39:53.487Z,39.25
2019-02-18T06:40:31.249Z,39.45
2019-02-18T06:41:08.841Z,37.75
2019-02-18T06:41:46.261Z,39.85
2019-02-18T06:42:24.054Z,38.83
2019-02-18T06:43:01.171Z,37.42
2019-02-18T06:43:39.171Z,37.53
2019-02-18T06:44:18.892Z,36.77
2019-02-18T06:45:02.823Z,39.13
2019-02-18T06:45:50.673Z,39.70
2019-02-18T06:46:33.440Z,37.85
2019-02-18T06:47:14.222Z,35.52
2019-02-18T06:47:53.371Z,37.78
2019-02-18T06:48:34.473Z,36.75
2019-02-18T06:49:14.631Z,36.33
2019-02-18T06:49:52.773Z,36.10
2019-02-18T06:50:30.935Z,37.88
2019-02-18T06:51:08.861Z,36.30
2019-02-18T06:51:48.742Z,36.65
2019-02-18T06:52:28.029Z,36.88
2019-02-18T06:53:05.869Z,38.53
2019-02-18T06:53:43.587Z,36.33
2019-02-18T06:54:22.405Z,37.08
2019-02-18T06:55:00.288Z,37.13
2019-02-18T06:55:37.705Z,37.50
2019-02-18T06:56:17.261Z,34.95
2019-02-18T06:57:13.761Z,36.13
2019-02-18T06:58:04.417Z,35.68
2019-02-18T06:58:53.908Z,35.52
2019-02-18T06:59:41.013Z,34.25
2019-02-18T07:00:24.497Z,36.65
2019-02-18T07:01:06.295Z,36.08
2019-02-18T07:01:56.073Z,34.20
2019-02-18T07:02:47.889Z,36.03
2019-02-18T07:03:30.133Z,34.58
2019-02-18T07:04:35.817Z,34.40
2019-02-18T07:05:19.682Z,35.63
2019-02-18T07:06:23.343Z,34.73
2019-02-18T07:07:35.123Z,35.08
2019-02-18T07:08:20.585Z,33.58
2019-02-18T07:09:08.305Z,34.95
2019-02-18T07:10:07.498Z,34.92
2019-02-18T07:11:04.019Z,34.75
2019-02-18T07:11:49.375Z,34.40
2019-02-18T07:12:29.827Z,34.65
2019-02-18T07:13:07.489Z,34.73
2019-02-18T07:13:48.907Z,35.25
2019-02-18T07:14:26.597Z,35.17
2019-02-18T07:15:04.432Z,35.35
2019-02-18T07:15:42.037Z,35.30
2019-02-18T07:16:19.851Z,35.15
2019-02-18T07:16:57.253Z,36.38
2019-02-18T07:17:35.018Z,36.28
2019-02-18T07:18:12.684Z,34.00
2019-02-18T07:18:50.387Z,33.25
2019-02-18T07:19:28.324Z,33.60
2019-02-18T07:20:06.559Z,35.83
2019-02-18T07:20:44.253Z,33.75
2019-02-18T07:21:21.967Z,37.08
2019-02-18T07:21:59.384Z,34.78
2019-02-18T07:22:37.199Z,34.40
2019-02-18T07:23:14.643Z,34.50
2019-02-18T07:23:52.240Z,33.73
2019-02-18T07:24:30.043Z,32.90
2019-02-18T07:25:08.990Z,33.63
2019-02-18T07:25:46.509Z,33.92
2019-02-18T07:26:26.785Z,33.95
2019-02-18T07:27:04.798Z,33.88
2019-02-18T07:27:42.543Z,32.58
2019-02-18T07:28:19.964Z,34.27
2019-02-18T07:28:56.982Z,34.95
2019-02-18T07:29:34.726Z,34.83
2019-02-18T07:30:14.901Z,34.53
2019-02-18T07:30:52.613Z,34.08
2019-02-18T07:31:30.674Z,34.83
2019-02-18T07:32:08.595Z,31.97
2019-02-18T07:32:46.456Z,32.38
2019-02-18T07:33:26.493Z,34.55
2019-02-18T07:34:03.967Z,33.90
2019-02-18T07:34:41.679Z,34.58
2019-02-18T07:35:19.879Z,33.42
2019-02-18T07:35:57.507Z,35.50
2019-02-18T07:36:35.549Z,33.58
2019-02-18T07:37:13.382Z,32.95
2019-02-18T07:37:50.892Z,33.65
2019-02-18T07:38:28.610Z,33.60
2019-02-18T07:39:08.106Z,33.73
2019-02-18T07:39:45.585Z,33.63
2019-02-18T07:40:22.965Z,32.58
2019-02-18T07:41:00.965Z,33.63
2019-02-18T07:41:38.324Z,33.88
2019-02-18T07:42:16.031Z,33.98
2019-02-18T07:42:53.483Z,32.78
2019-02-18T07:43:31.175Z,33.90
2019-02-18T07:44:08.271Z,34.70
2019-02-18T07:44:45.920Z,32.65
2019-02-18T07:45:23.519Z,32.90
2019-02-18T07:46:00.622Z,32.80
2019-02-18T07:46:38.150Z,34.05
2019-02-18T07:47:15.171Z,31.20
2019-02-18T07:47:53.420Z,33.35
2019-02-18T07:48:30.565Z,33.30
2019-02-18T07:49:08.510Z,31.25
2019-02-18T07:49:46.192Z,32.75
2019-02-18T07:50:23.924Z,33.13
2019-02-18T07:51:01.544Z,31.73
2019-02-18T07:51:39.597Z,33.25
2019-02-18T07:52:17.541Z,32.58
2019-02-18T07:52:55.607Z,31.17
2019-02-18T07:53:34.623Z,32.25
2019-02-18T07:54:12.406Z,31.57
2019-02-18T07:54:50.454Z,32.00
2019-02-18T07:55:27.926Z,31.87
2019-02-18T07:56:07.302Z,32.85
2019-02-18T07:56:45.292Z,31.50
2019-02-18T07:57:23.206Z,32.63
2019-02-18T07:58:00.997Z,31.02
2019-02-18T07:58:38.643Z,32.30
2019-02-18T07:59:16.653Z,31.05
2019-02-18T07:59:54.234Z,32.08
2019-02-18T08:00:32.244Z,31.50
2019-02-18T08:01:10.215Z,31.65
2019-02-18T08:01:47.931Z,31.82
2019-02-18T08:02:25.209Z,31.52
2019-02-18T08:03:02.861Z,31.85
2019-02-18T08:03:43.187Z,33.00
2019-02-18T08:04:20.871Z,32.33
2019-02-18T08:05:02.161Z,32.25
2019-02-18T08:05:38.620Z,31.82
2019-02-18T08:06:18.031Z,33.90
2019-02-18T08:06:55.365Z,30.90
2019-02-18T08:07:33.103Z,32.10
2019-02-18T08:08:10.788Z,31.05
2019-02-18T08:08:48.765Z,30.95
2019-02-18T08:09:25.773Z,29.85
2019-02-18T08:10:11.685Z,30.30
2019-02-18T08:10:42.515Z,32.93
2019-02-18T08:11:20.235Z,31.68
2019-02-18T08:11:58.214Z,30.10
2019-02-18T08:12:35.371Z,30.65
2019-02-18T08:13:13.080Z,31.33
2019-02-18T08:13:50.536Z,30.97
2019-02-18T08:14:28.009Z,30.70
2019-02-18T08:15:05.849Z,30.43
2019-02-18T08:15:43.277Z,28.90